Cabrerets ULM

FR-0337 · Lot, Linguadoca-Rossiglione-Midi-Pirenei, Francia

Storia di METAR FR-0337 · Cabrerets ULM

Di seguito sono riportati i METAR degli ultimi giorni. Seleziona un anno per sfogliare i METAR più vecchi, dall'anno 2007 in poi.

3 dicembre 2022

Tempo Codice Tempo metereologico Temp. Vista Base nuvolosa Vento METAR/SPECI
19:30
V
5 °C 10 km+ 5.200 ft Var 000° 0 kt METAR LFSL 031830Z AUTO 00000KT 9999 SCT030 BKN052 05/02 Q1007 NOSIG
19:00
M
5 °C 10 km+ 2.900 ft 320° 320° 1 kt METAR LFSL 031800Z AUTO 32001KT 9999 SCT023 OVC029 05/02 Q1007 NOSIG
18:30
M
6 °C 10 km+ 2.100 ft Var Var 2 kt METAR LFSL 031730Z AUTO VRB02KT 9999 OVC021 06/02 Q1007 NOSIG
18:00
M
6 °C 10 km+ 2.000 ft Var 000° 0 kt METAR LFSL 031700Z AUTO 00000KT 9999 OVC020 06/02 Q1007 TEMPO 4000 -RADZ
17:30
M
6 °C 10 km+ 2.200 ft Var Var 2 kt METAR LFSL 031630Z AUTO VRB02KT 9999 BKN022/// OVC028/// ///TCU 06/02 Q1007 TEMPO 4000 -RADZ BECMG SCT025 BKN040
17:00
M
6 °C 10 km+ 2.300 ft 310° 310° 4 kt METAR LFSL 031600Z AUTO 31004KT 9999 OVC023/// ///TCU 06/02 Q1007 TEMPO 4000 -RADZ SCT005 BKN035
16:30
M
7 °C 10 km+ 2.300 ft 310° 310° 5 kt METAR LFSL 031530Z AUTO 31005KT 9999 BKN023 07/02 Q1007 TEMPO 4000 -RADZ
16:00
V
7 °C 10 km+ - 310° 310° 5 kt METAR LFSL 031500Z AUTO 31005KT CAVOK 07/02 Q1007 TEMPO 4000 -RADZ
15:30
V
8 °C 10 km+ - 020° 020° 6 kt METAR LFSL 031430Z AUTO 02006KT 340V050 CAVOK 08/02 Q1007 TEMPO 4000 -RADZ
15:00
V
8 °C 10 km+ - 340° 340° 6 kt METAR LFSL 031400Z AUTO 34006KT CAVOK 08/02 Q1007 TEMPO 4000 -RADZ
14:30
V
8 °C 10 km+ - 330° 330° 4 kt METAR LFSL 031330Z AUTO 33004KT 290V010 CAVOK 08/01 Q1007 TEMPO 4000 -RADZ
14:00
V
7 °C 10 km+ - Var Var 2 kt METAR LFSL 031300Z AUTO VRB02KT CAVOK 07/00 Q1008 TEMPO 4000 -RADZ
13:30
V
7 °C 10 km+ - Var Var 1 kt METAR LFSL 031230Z AUTO VRB01KT CAVOK 07/01 Q1008 TEMPO 4000 -RADZ
13:00
V
7 °C 10 km+ - Var Var 1 kt METAR LFSL 031200Z AUTO VRB01KT CAVOK 07/01 Q1009 TEMPO 4000 -RADZ
12:30
V
6 °C 10 km+ - Var Var 3 kt METAR LFSL 031130Z AUTO VRB03KT CAVOK 06/01 Q1009 TEMPO 4000 -RADZ BKN005
12:00
V
6 °C 10 km+ - 120° 120° 4 kt METAR LFSL 031100Z AUTO 12004KT 070V170 CAVOK 06/02 Q1009 TEMPO 4000 -RADZ BKN005
11:30
V
6 °C 10 km+ - 100° 100° 6 kt METAR LFSL 031030Z AUTO 10006KT CAVOK 06/02 Q1009 TEMPO 4000 -RADZ BKN005
11:00
V
6 °C 10 km+ - 110° 110° 6 kt METAR LFSL 031000Z AUTO 11006KT 080V140 CAVOK 06/02 Q1009 NOSIG
10:30
V
4 °C 10 km+ - 120° 120° 4 kt METAR LFSL 030930Z AUTO 12004KT CAVOK 04/02 Q1009 NOSIG
10:00
V
3 °C 10 km+ - 100° 100° 4 kt METAR LFSL 030900Z AUTO 10004KT 9999 FEW048 03/02 Q1009 NOSIG
09:30
V
4 °C 10 km+ 4.600 ft 130° 130° 3 kt METAR LFSL 030830Z AUTO 13003KT 9999 OVC046 04/02 Q1009 NOSIG
09:00
V
3 °C 10 km+ 4.500 ft Var Var 2 kt METAR LFSL 030800Z AUTO VRB02KT 9999 FEW036 OVC045 03/02 Q1009 TEMPO 4000 -RADZ OVC004
08:30
V
3 °C 10 km+ 4.600 ft Var Var 2 kt METAR LFSL 030730Z AUTO VRB02KT 9999 FEW036 OVC046 03/02 Q1009 TEMPO 4000 -RADZ OVC004
08:00
V
3 °C 10 km+ 4.100 ft 130° 130° 1 kt METAR LFSL 030700Z AUTO 13001KT 9999 FEW033 OVC041 03/02 Q1009 TEMPO 4000 -RADZ OVC004
07:30
V
3 °C 10 km+ 3.300 ft Var Var 1 kt METAR LFSL 030630Z AUTO VRB01KT 9999 FEW024 BKN033 OVC039 03/02 Q1009 TEMPO 4000 -RADZ OVC004
07:00
M
3 °C 10 km+ 2.000 ft 120° 120° 2 kt METAR LFSL 030600Z AUTO 12002KT 9999 BKN020 BKN034 OVC041 03/02 Q1009 TEMPO 4000 -RADZ OVC004
06:30
M
3 °C 10 km+ 1.800 ft 120° 120° 2 kt METAR LFSL 030530Z AUTO 12002KT 9999 OVC018 03/02 Q1009 TEMPO 4000 -RADZ OVC010
06:00
M
3 °C 10 km+ 1.600 ft Var Var 1 kt METAR LFSL 030500Z AUTO VRB01KT 9999 BKN016 OVC023 03/02 Q1009 TEMPO 4000 -RADZ OVC010
05:30
M
3 °C 10 km+ 1.400 ft Var 000° 0 kt METAR LFSL 030430Z AUTO 00000KT 9999 BKN014 BKN029 OVC040 03/02 Q1010 TEMPO 4000 -RADZ
05:00
M
3 °C 10 km+ 1.400 ft Var 000° 0 kt METAR LFSL 030400Z AUTO 00000KT 9999 BKN014 OVC038 03/02 Q1010 TEMPO 4000 -RADZ
04:30
V
3 °C 8 km 3.800 ft Var 000° 0 kt METAR LFSL 030330Z AUTO 00000KT 8000 FEW010 OVC038 03/02 Q1010 TEMPO 4000 -RADZ OVC010
04:00
M
3 °C 6 km 3.900 ft Var Var 2 kt METAR LFSL 030300Z AUTO VRB02KT 6000 FEW011 OVC039 03/03 Q1010 TEMPO 4000 -RADZ OVC010
03:30
M
3 °C 6 km 4.200 ft 120° 120° 3 kt METAR LFSL 030230Z AUTO 12003KT 6000 SCT033 OVC042 03/03 Q1010
03:00
M
3 °C 6 km 3.400 ft 120° 120° 3 kt METAR LFSL 030200Z AUTO 12003KT 6000 FEW003 BKN034 OVC042 03/03 Q1010
02:30
M
3 °C 7 km 4.200 ft Var Var 3 kt METAR LFSL 030130Z AUTO VRB03KT 7000 FEW003 SCT035 OVC042 03/02 Q1011
02:00
M
3 °C 7 km 3.600 ft 120° 120° 3 kt METAR LFSL 030100Z AUTO 12003KT 7000 FEW003 BKN036 OVC042 03/02 Q1011
01:30
M
3 °C 7 km 4.000 ft 120° 120° 3 kt METAR LFSL 030030Z AUTO 12003KT 7000 SCT010 OVC040 03/02 Q1011
01:00
M
3 °C 8 km 2.300 ft 120° 120° 3 kt METAR LFSL 030000Z AUTO 12003KT 8000 SCT005 SCT009 BKN023 03/02 Q1012
00:30
I
3 °C 9 km 600 ft 120° 120° 3 kt METAR LFSL 022330Z AUTO 12003KT 9000 -RA OVC006 03/02 Q1012
00:00
I
3 °C 8 km 900 ft 100° 100° 2 kt METAR LFSL 022300Z AUTO 10002KT 8000 -RA BKN009 OVC034 03/02 Q1012

2 dicembre 2022

Tempo Codice Tempo metereologico Temp. Vista Base nuvolosa Vento METAR/SPECI
23:30
V
3 °C 9 km 3.400 ft Var Var 1 kt METAR LFSL 022230Z AUTO VRB01KT 9000 SCT012 SCT017 OVC034 03/02 Q1012
23:00
M
4 °C 10 km+ 2.800 ft Var Var 3 kt METAR LFSL 022200Z AUTO VRB03KT 9999 BKN028 OVC034 04/02 Q1012
22:30
M
4 °C 10 km+ 2.200 ft Var Var 2 kt METAR LFSL 022130Z AUTO VRB02KT 9999 BKN022 OVC029 04/01 Q1013
22:00
V
4 °C 10 km+ 3.100 ft Var 000° 0 kt METAR LFSL 022100Z AUTO 00000KT 9999 OVC031 04/02 Q1013 BECMG OVC010
21:30
V
4 °C 10 km+ 3.100 ft Var Var 1 kt METAR LFSL 022030Z AUTO VRB01KT 9999 OVC031 04/02 Q1013 BECMG OVC010
21:00
V
4 °C 10 km+ 3.100 ft Var 000° 0 kt METAR LFSL 022000Z AUTO 00000KT 9999 OVC031 04/02 Q1013 BECMG OVC010
20:30
V
4 °C 10 km+ 3.300 ft Var Var 2 kt METAR LFSL 021930Z AUTO VRB02KT 9999 OVC033 04/01 Q1013 BECMG OVC010
20:00
V
4 °C 10 km+ 3.200 ft Var Var 1 kt METAR LFSL 021900Z AUTO VRB01KT 9999 OVC032 04/01 Q1014 BECMG OVC010
19:30
V
4 °C 10 km+ 3.300 ft Var Var 2 kt METAR LFSL 021830Z AUTO VRB02KT 9999 FEW026 OVC033 04/01 Q1014 BECMG OVC010
19:00
V
4 °C 10 km+ 3.600 ft 350° 350° 3 kt METAR LFSL 021800Z AUTO 35003KT 9999 OVC036 04/01 Q1014 NOSIG
18:30
V
5 °C 10 km+ 3.600 ft 020° 020° 3 kt METAR LFSL 021730Z AUTO 02003KT 350V050 9999 OVC036 05/01 Q1014 NOSIG
18:00
V
5 °C 10 km+ 3.100 ft Var Var 3 kt METAR LFSL 021700Z AUTO VRB03KT 9999 OVC031 05/01 Q1014 NOSIG
17:30
V
5 °C 10 km+ 3.100 ft 330° 330° 4 kt METAR LFSL 021630Z AUTO 33004KT 9999 OVC031 05/01 Q1014 NOSIG
17:00
V
5 °C 10 km+ 3.200 ft 340° 340° 4 kt METAR LFSL 021600Z AUTO 34004KT 9999 OVC032 05/01 Q1014 NOSIG
16:30
M
5 °C 10 km+ 2.900 ft Var Var 2 kt METAR LFSL 021530Z AUTO VRB02KT 9999 OVC029 05/01 Q1015 NOSIG
16:00
M
5 °C 10 km+ 2.900 ft 350° 350° 4 kt METAR LFSL 021500Z AUTO 35004KT 320V020 9999 OVC029 05/01 Q1015 NOSIG
15:30
M
5 °C 10 km+ 2.800 ft 330° 330° 5 kt METAR LFSL 021430Z AUTO 33005KT 9999 OVC028 05/01 Q1015 NOSIG
15:00
M
6 °C 10 km+ 2.900 ft Var Var 2 kt METAR LFSL 021400Z AUTO VRB02KT 9999 OVC029 06/01 Q1015 NOSIG
14:30
V
6 °C 10 km+ 3.000 ft 020° 020° 3 kt METAR LFSL 021330Z AUTO 02003KT 9999 FEW024 OVC030 06/01 Q1015 NOSIG
14:00
V
6 °C 10 km+ 3.100 ft 340° 340° 4 kt METAR LFSL 021300Z AUTO 34004KT 9999 SCT023 OVC031 06/01 Q1015 NOSIG
13:30
V
6 °C 10 km+ 3.300 ft Var Var 2 kt METAR LFSL 021230Z AUTO VRB02KT 9999 FEW027 OVC033 06/01 Q1016 NOSIG
13:00
V
6 °C 10 km+ 3.300 ft Var Var 2 kt METAR LFSL 021200Z AUTO VRB02KT 9999 OVC033 06/01 Q1016 NOSIG
12:30
V
6 °C 10 km+ 3.400 ft Var Var 2 kt METAR LFSL 021130Z AUTO VRB02KT 9999 OVC034 06/00 Q1016 NOSIG
12:00
V
6 °C 10 km+ 3.400 ft Var Var 2 kt METAR LFSL 021100Z AUTO VRB02KT 9999 OVC034 06/01 Q1017 NOSIG
11:30
V
5 °C 10 km+ 3.400 ft Var Var 2 kt METAR LFSL 021030Z AUTO VRB02KT 9999 OVC034 05/01 Q1017 NOSIG
11:00
V
5 °C 10 km+ 3.400 ft Var Var 3 kt METAR LFSL 021000Z AUTO VRB03KT 9999 OVC034 05/01 Q1017 NOSIG
10:30
V
5 °C 10 km+ 3.500 ft 360° 360° 4 kt METAR LFSL 020930Z AUTO 36004KT 9999 OVC035 05/01 Q1017 NOSIG
10:00
V
5 °C 10 km+ 3.500 ft 010° 010° 3 kt METAR LFSL 020900Z AUTO 01003KT 9999 OVC035 05/01 Q1017 NOSIG
09:30
V
5 °C 10 km+ 3.500 ft 020° 020° 3 kt METAR LFSL 020830Z AUTO 02003KT 9999 OVC035 05/00 Q1017 NOSIG
09:00
V
4 °C 10 km+ 3.600 ft 010° 010° 4 kt METAR LFSL 020800Z AUTO 01004KT 9999 OVC036 04/01 Q1017 NOSIG
08:30
V
4 °C 10 km+ 3.600 ft 030° 030° 3 kt METAR LFSL 020730Z AUTO 03003KT 9999 OVC036 04/00 Q1017 NOSIG
08:00
V
4 °C 10 km+ 3.700 ft Var Var 2 kt METAR LFSL 020700Z AUTO VRB02KT 9999 OVC037 04/00 Q1017 NOSIG
07:30
V
4 °C 10 km+ 3.700 ft 030° 030° 3 kt METAR LFSL 020630Z AUTO 03003KT 9999 OVC037 04/00 Q1017 NOSIG
07:00
V
4 °C 10 km+ 3.700 ft 360° 360° 4 kt METAR LFSL 020600Z AUTO 36004KT 9999 OVC037 04/00 Q1017 NOSIG
06:30
V
4 °C 10 km+ 3.800 ft 360° 360° 3 kt METAR LFSL 020530Z AUTO 36003KT 9999 OVC038 04/00 Q1017 NOSIG
06:00
V
4 °C 10 km+ 3.800 ft 350° 350° 3 kt METAR LFSL 020500Z AUTO 35003KT 9999 OVC038 04/00 Q1017 NOSIG
05:30
V
4 °C 10 km+ 3.900 ft 350° 350° 3 kt METAR LFSL 020430Z AUTO 35003KT 9999 OVC039 04/00 Q1018 NOSIG
05:00
V
4 °C 10 km+ 3.800 ft 360° 360° 3 kt METAR LFSL 020400Z AUTO 36003KT 9999 OVC038 04/00 Q1018 NOSIG
04:30
V
4 °C 10 km+ 3.900 ft 350° 350° 3 kt METAR LFSL 020330Z AUTO 35003KT 9999 OVC039 04/01 Q1018 NOSIG
04:00
V
4 °C 10 km+ 4.000 ft 340° 340° 4 kt METAR LFSL 020300Z AUTO 34004KT 9999 OVC040 04/00 Q1018 NOSIG
03:30
V
5 °C 10 km+ 4.100 ft 010° 010° 4 kt METAR LFSL 020230Z AUTO 01004KT 9999 BKN041 05/01 Q1018
03:00
V
5 °C 10 km+ 4.200 ft 010° 010° 3 kt METAR LFSL 020200Z AUTO 01003KT 9999 OVC042 05/01 Q1018
02:30
V
5 °C 10 km+ 4.200 ft 010° 010° 3 kt METAR LFSL 020130Z AUTO 01003KT 340V040 9999 OVC042 05/01 Q1018
02:00
V
5 °C 10 km+ 4.200 ft Var Var 3 kt METAR LFSL 020100Z AUTO VRB03KT 9999 OVC042 05/01 Q1019
01:30
V
5 °C 10 km+ 4.300 ft 350° 350° 3 kt METAR LFSL 020030Z AUTO 35003KT 9999 OVC043 05/02 Q1019
01:00
V
6 °C 10 km+ 4.300 ft 360° 360° 3 kt METAR LFSL 020000Z AUTO 36003KT 9999 OVC043 06/01 Q1019
00:30
V
6 °C 10 km+ 4.400 ft 350° 350° 3 kt METAR LFSL 012330Z AUTO 35003KT 9999 OVC044 06/01 Q1019
00:00
V
6 °C 10 km+ 4.500 ft 350° 350° 2 kt METAR LFSL 012300Z AUTO 35002KT 9999 OVC045 06/01 Q1020

1 dicembre 2022

Tempo Codice Tempo metereologico Temp. Vista Base nuvolosa Vento METAR/SPECI
23:30
V
6 °C 10 km+ 4.500 ft 350° 350° 3 kt METAR LFSL 012230Z AUTO 35003KT 9999 OVC045 06/01 Q1020
23:00
V
6 °C 10 km+ 4.500 ft 340° 340° 3 kt METAR LFSL 012200Z AUTO 34003KT 9999 OVC045 06/01 Q1020
22:30
V
6 °C 10 km+ 4.400 ft 340° 340° 4 kt METAR LFSL 012130Z AUTO 34004KT 9999 OVC044 06/01 Q1020
22:00
V
6 °C 10 km+ 4.400 ft 350° 350° 3 kt METAR LFSL 012100Z AUTO 35003KT 9999 OVC044 06/01 Q1020 NOSIG
21:30
V
6 °C 10 km+ 4.400 ft 360° 360° 3 kt METAR LFSL 012030Z AUTO 36003KT 340V040 9999 OVC044 06/01 Q1019 NOSIG
21:00
V
6 °C 10 km+ 4.300 ft 020° 020° 3 kt METAR LFSL 012000Z AUTO 02003KT 330V060 9999 OVC043 06/01 Q1019 NOSIG
20:30
V
7 °C 10 km+ 4.200 ft 020° 020° 4 kt METAR LFSL 011930Z AUTO 02004KT 330V050 9999 OVC042 07/01 Q1019 NOSIG
20:00
V
7 °C 10 km+ 4.100 ft 010° 010° 5 kt METAR LFSL 011900Z AUTO 01005KT 330V030 9999 OVC041 07/01 Q1019 NOSIG
19:30
V
7 °C 10 km+ 4.300 ft 020° 020° 6 kt METAR LFSL 011830Z AUTO 02006KT 9999 OVC043 07/01 Q1019 NOSIG
19:00
V
7 °C 10 km+ 4.400 ft 010° 010° 7 kt METAR LFSL 011800Z AUTO 01007KT 9999 BKN044 07/01 Q1019 NOSIG
18:30
V
7 °C 10 km+ 4.500 ft 020° 020° 8 kt METAR LFSL 011730Z AUTO 02008KT 9999 OVC045 07/01 Q1019 NOSIG
18:00
V
7 °C 10 km+ 4.400 ft 010° 010° 9 kt METAR LFSL 011700Z AUTO 01009KT 9999 OVC044 07/02 Q1019 NOSIG
17:30
V
7 °C 10 km+ 4.500 ft 010° 010° 8 kt METAR LFSL 011630Z AUTO 01008KT 340V040 9999 BKN045 07/02 Q1019 NOSIG
17:00
V
7 °C 10 km+ - 010° 010° 7 kt METAR LFSL 011600Z AUTO 01007KT 9999 FEW048 07/02 Q1019 NOSIG
16:30
V
8 °C 10 km+ 4.600 ft 030° 030° 10 kt METAR LFSL 011530Z AUTO 03010KT 9999 BKN046 08/02 Q1019 NOSIG
16:00
V
9 °C 10 km+ 4.500 ft 020° 020° 9 kt METAR LFSL 011500Z AUTO 02009KT 9999 OVC045 09/02 Q1019 NOSIG
15:30
V
9 °C 10 km+ 4.300 ft 010° 010° 11 kt METAR LFSL 011430Z AUTO 01011KT 9999 OVC043 09/02 Q1019 NOSIG
15:00
V
9 °C 10 km+ 4.300 ft 020° 020° 10 kt METAR LFSL 011400Z AUTO 02010KT 9999 BKN043 09/01 Q1019 NOSIG
14:30
V
9 °C 10 km+ 4.500 ft 010° 010° 9 kt METAR LFSL 011330Z AUTO 01009KT 340V050 9999 BKN045 09/01 Q1019 NOSIG
14:00
V
9 °C 10 km+ 4.600 ft 020° 020° 10 kt METAR LFSL 011300Z AUTO 02010KT 350V060 9999 SCT036 BKN046 09/02 Q1019 NOSIG
13:30
V
9 °C 10 km+ 4.100 ft 010° 010° 10 kt METAR LFSL 011230Z AUTO 01010KT 9999 SCT034 BKN041 BKN190 09/02 Q1019 NOSIG
13:00
V
9 °C 10 km+ 3.900 ft 030° 030° 11 kt METAR LFSL 011200Z AUTO 03011KT 360V060 9999 SCT033 BKN039 BKN046 09/02 Q1020 NOSIG
12:30
V
9 °C 10 km+ 20.000 ft 360° 360° 7 kt METAR LFSL 011130Z AUTO 36007KT 320V040 9999 FEW031 BKN200 09/04 Q1020 NOSIG
12:00
V
8 °C 10 km+ - 020° 020° 8 kt METAR LFSL 011100Z AUTO 02008KT 350V060 CAVOK 08/03 Q1020 NOSIG
11:30
V
7 °C 10 km+ - 020° 020° 8 kt METAR LFSL 011030Z AUTO 02008KT CAVOK 07/03 Q1020 NOSIG
11:00
V
6 °C 10 km+ - 350° 350° 9 kt METAR LFSL 011000Z AUTO 35009KT CAVOK 06/03 Q1020 NOSIG

Noi e le terze parti seguiamo il tuo comportamento su internet con i cookie. Se continui, riteniamo che tu sia d'accordo con la nostra Politica sui cookie.